Time;durP1;ratioP1;P1;durP2;ratioP2;P2;SDS_P1;SDS_P2;PMS_P1;PMS_P2;Temp;Humidity;BMP_temperature;BMP_pressure;BME280_temperature;BME280_humidity;BME280_pressure;Samples;Min_cycle;Max_cycle;Signal;HPM_P1;HPM_P2
2023/12/31 00:01:50;;;;;;;2.30;1.25;;;;;;;8.10;100.00;100381.63;5051030;28;20029;-72
2023/12/31 00:04:15;;;;;;;2.88;1.02;;;;;;;8.10;100.00;100384.28;5050959;28;20029;-71
2023/12/31 00:06:41;;;;;;;2.08;1.38;;;;;;;8.09;100.00;100370.16;5050893;28;20036;-72
2023/12/31 00:09:06;;;;;;;3.10;1.17;;;;;;;8.09;100.00;100371.97;5050925;28;20029;-72
2023/12/31 00:11:31;;;;;;;2.05;1.20;;;;;;;8.12;100.00;100358.31;5049289;28;20040;-72
2023/12/31 00:13:56;;;;;;;3.95;1.10;;;;;;;8.13;100.00;100344.84;5049342;28;20170;-71
2023/12/31 00:16:22;;;;;;;2.70;1.40;;;;;;;8.15;100.00;100346.47;5049345;28;20039;-71
2023/12/31 00:18:47;;;;;;;1.73;1.10;;;;;;;8.15;100.00;100341.16;5050694;28;20060;-72
2023/12/31 00:21:12;;;;;;;1.20;1.10;;;;;;;8.17;100.00;100337.31;5050681;28;20602;-72
2023/12/31 00:23:38;;;;;;;4.00;1.23;;;;;;;8.19;100.00;100321.19;5050620;28;20545;-72
2023/12/31 00:26:03;;;;;;;6.30;1.40;;;;;;;8.20;100.00;100321.00;5050584;28;20545;-72
2023/12/31 00:28:28;;;;;;;2.00;1.05;;;;;;;8.20;100.00;100318.34;5050517;28;21000;-72
2023/12/31 00:30:54;;;;;;;2.95;1.30;;;;;;;8.19;100.00;100315.88;5050354;28;20047;-72
2023/12/31 00:33:20;;;;;;;2.47;0.95;;;;;;;8.17;100.00;100312.59;5050431;28;20060;-72
2023/12/31 00:35:45;;;;;;;3.20;1.27;;;;;;;8.15;100.00;100306.63;5050308;28;20025;-72
2023/12/31 00:38:10;;;;;;;3.03;1.20;;;;;;;8.15;100.00;100311.94;5050320;28;20494;-71
2023/12/31 00:40:36;;;;;;;1.80;1.02;;;;;;;8.10;100.00;100289.47;5050095;28;20049;-71
2023/12/31 00:43:01;;;;;;;1.70;0.70;;;;;;;8.11;100.00;100280.47;5050205;28;20032;-72
2023/12/31 00:45:26;;;;;;;4.35;1.23;;;;;;;8.15;100.00;100272.09;5048754;28;20033;-73
2023/12/31 00:47:52;;;;;;;1.48;0.95;;;;;;;8.15;100.00;100280.94;5050122;28;20078;-71
2023/12/31 00:50:19;;;;;;;2.03;1.10;;;;;;;8.16;100.00;100271.13;5048600;28;20129;-72
2023/12/31 00:52:44;;;;;;;2.80;0.95;;;;;;;8.15;100.00;100262.34;5050048;28;20025;-72
2023/12/31 00:55:09;;;;;;;4.03;2.70;;;;;;;8.13;100.00;100259.84;5049640;28;20033;-72
2023/12/31 00:57:35;;;;;;;2.42;0.90;;;;;;;8.15;100.00;100256.19;5049971;28;20408;-71
2023/12/31 01:00:00;;;;;;;3.10;1.60;;;;;;;8.13;100.00;100237.78;5049809;28;20025;-71
2023/12/31 01:02:27;;;;;;;4.13;1.67;;;;;;;8.20;100.00;100236.00;5049831;28;20033;-71
2023/12/31 01:04:52;;;;;;;4.78;1.58;;;;;;;8.24;100.00;100244.38;5048572;28;20112;-71
2023/12/31 01:07:17;;;;;;;2.63;1.25;;;;;;;8.29;100.00;100244.63;5048368;28;20440;-71
2023/12/31 01:09:43;;;;;;;1.17;1.00;;;;;;;8.31;100.00;100240.75;5049316;28;20036;-72
2023/12/31 01:12:08;;;;;;;2.28;1.23;;;;;;;8.29;100.00;100242.78;5049625;28;20031;-72
2023/12/31 01:14:37;;;;;;;1.67;0.75;;;;;;;8.24;100.00;100229.25;5049606;28;20069;-72
2023/12/31 01:17:02;;;;;;;1.27;1.08;;;;;;;8.27;100.00;100242.16;5049598;28;20044;-72
2023/12/31 01:19:28;;;;;;;3.92;2.03;;;;;;;8.28;100.00;100235.03;5049464;28;20021;-71
2023/12/31 01:21:55;;;;;;;3.40;2.03;;;;;;;8.26;100.00;100226.41;5049445;28;20033;-72
2023/12/31 01:24:20;;;;;;;3.85;1.73;;;;;;;8.24;100.00;100226.59;5049419;28;20040;-71
2023/12/31 01:26:45;;;;;;;2.63;1.40;;;;;;;8.23;100.00;100217.00;5031718;28;20036;-71
2023/12/31 01:29:11;;;;;;;2.53;0.95;;;;;;;8.19;100.00;100206.97;5049443;28;20064;-71
2023/12/31 01:31:36;;;;;;;3.13;1.35;;;;;;;8.23;100.00;100194.94;5049312;28;20037;-71
2023/12/31 01:34:02;;;;;;;4.43;1.08;;;;;;;8.25;100.00;100195.53;5047962;28;20078;-71
2023/12/31 01:36:27;;;;;;;2.42;1.75;;;;;;;8.25;100.00;100196.38;5049159;28;20033;-71
2023/12/31 01:38:53;;;;;;;3.75;2.40;;;;;;;8.25;100.00;100195.53;5049005;28;20036;-72
2023/12/31 01:41:18;;;;;;;2.85;1.40;;;;;;;8.25;100.00;100201.69;5049134;28;20477;-72
2023/12/31 01:43:43;;;;;;;1.27;1.00;;;;;;;8.26;100.00;100192.69;5049123;28;20064;-72
2023/12/31 01:46:11;;;;;;;1.50;0.88;;;;;;;8.25;100.00;100184.91;5049084;28;20029;-72
2023/12/31 01:48:36;;;;;;;4.60;1.02;;;;;;;8.21;100.00;100176.53;5049130;28;20040;-72
2023/12/31 01:51:03;;;;;;;2.13;0.98;;;;;;;8.20;100.00;100172.25;5047668;28;20891;-71
2023/12/31 01:53:29;;;;;;;2.35;1.00;;;;;;;8.22;100.00;100180.00;5049018;28;20048;-71
2023/12/31 01:55:55;;;;;;;1.88;1.58;;;;;;;8.20;100.00;100172.25;5048987;28;20037;-71
2023/12/31 01:58:22;;;;;;;1.65;1.20;;;;;;;8.20;100.00;100169.59;5048991;28;20121;-72
2023/12/31 02:00:48;;;;;;;3.20;1.10;;;;;;;8.18;100.00;100166.31;5048935;28;20032;-71
2023/12/31 02:03:15;;;;;;;2.30;0.90;;;;;;;8.20;100.00;100163.44;5049049;28;20037;-71
2023/12/31 02:05:41;;;;;;;8.80;1.60;;;;;;;8.19;100.00;100153.84;5048815;28;20485;-72
2023/12/31 02:08:06;;;;;;;2.63;0.98;;;;;;;8.22;100.00;100151.59;5048749;28;20040;-72
2023/12/31 02:10:32;;;;;;;2.28;0.95;;;;;;;8.24;100.00;100146.91;5048714;28;20586;-72
2023/12/31 02:12:57;;;;;;;0.90;0.90;;;;;;;8.25;100.00;100143.25;5048909;28;20489;-71
2023/12/31 02:15:33;;;;;;;1.08;1.00;;;;;;;8.25;100.00;100145.06;5047355;28;20037;-72
2023/12/31 02:18:00;;;;;;;3.30;1.58;;;;;;;8.24;100.00;100135.47;5048861;28;20036;-72
2023/12/31 02:20:26;;;;;;;2.83;1.45;;;;;;;8.23;100.00;100134.66;5049670;28;20506;-71
2023/12/31 02:22:52;;;;;;;2.13;1.42;;;;;;;8.21;100.00;100128.72;5052853;28;20033;-71
2023/12/31 02:25:19;;;;;;;2.83;1.30;;;;;;;8.18;100.00;100113.19;5052725;28;20035;-72
2023/12/31 02:27:44;;;;;;;2.78;1.20;;;;;;;8.17;100.00;100113.38;5052859;28;20033;-71
2023/12/31 02:30:10;;;;;;;2.25;0.90;;;;;;;8.19;100.00;100103.38;5051437;28;20187;-71
2023/12/31 02:32:35;;;;;;;3.40;1.48;;;;;;;8.17;100.00;100098.25;5052757;28;20029;-71
2023/12/31 02:35:02;;;;;;;1.48;1.08;;;;;;;8.16;100.00;100099.28;5052541;28;20029;-71
2023/12/31 02:37:29;;;;;;;3.03;1.55;;;;;;;8.16;100.00;100082.53;5052648;28;20454;-71
2023/12/31 02:39:54;;;;;;;4.75;2.08;;;;;;;8.15;100.00;100092.34;5052325;28;20053;-71
2023/12/31 02:42:20;;;;;;;4.32;2.13;;;;;;;8.14;100.00;100082.72;5052518;28;20035;-71
2023/12/31 02:44:45;;;;;;;5.13;2.10;;;;;;;8.12;100.00;100074.97;5052425;28;20029;-72
2023/12/31 02:47:11;;;;;;;2.85;1.63;;;;;;;8.11;100.00;100064.53;5052436;28;20044;-71
2023/12/31 02:49:36;;;;;;;6.28;1.90;;;;;;;8.14;100.00;100056.16;5052373;28;20379;-71
2023/12/31 02:52:02;;;;;;;3.53;1.67;;;;;;;8.19;100.00;100052.91;5052098;28;20399;-71
2023/12/31 02:54:27;;;;;;;5.13;1.40;;;;;;;8.20;100.00;100046.56;5051810;28;20119;-72
2023/12/31 02:56:53;;;;;;;2.97;1.42;;;;;;;8.19;100.00;100040.44;5052118;28;20447;-71
2023/12/31 02:59:18;;;;;;;3.35;2.30;;;;;;;8.18;100.00;100028.19;5050827;28;20098;-71
2023/12/31 03:01:43;;;;;;;2.53;1.50;;;;;;;8.12;100.00;100021.00;5052188;28;20048;-71
2023/12/31 03:04:09;;;;;;;5.35;1.40;;;;;;;8.15;100.00;100020.63;5051999;28;20039;-71
2023/12/31 03:06:37;;;;;;;4.32;2.67;;;;;;;8.13;100.00;100020.81;5051526;28;20059;-72
2023/12/31 03:09:02;;;;;;;5.43;2.17;;;;;;;8.13;100.00;100010.19;5051908;28;20025;-71
2023/12/31 03:11:28;;;;;;;5.15;2.28;;;;;;;8.12;100.00;100005.06;5051843;28;20037;-72
2023/12/31 03:13:53;;;;;;;3.45;1.50;;;;;;;8.08;100.00;99994.03;5050465;28;20102;-72
2023/12/31 03:16:19;;;;;;;3.25;1.83;;;;;;;8.13;100.00;100009.38;5051750;28;20387;-71
2023/12/31 03:18:44;;;;;;;3.17;2.08;;;;;;;8.18;100.00;100008.78;5051876;28;20391;-72
2023/12/31 03:21:16;;;;;;;4.35;1.40;;;;;;;8.19;100.00;100000.59;5051613;28;20040;-72
2023/12/31 03:23:41;;;;;;;3.05;2.05;;;;;;;8.19;100.00;99992.63;5051775;28;20017;-72
2023/12/31 03:26:06;;;;;;;3.03;1.88;;;;;;;8.15;100.00;99974.63;5050262;28;20061;-71
2023/12/31 03:28:32;;;;;;;2.72;1.70;;;;;;;8.17;100.00;99976.06;5051580;28;20095;-72
2023/12/31 03:30:57;;;;;;;2.60;1.67;;;;;;;8.14;100.00;99960.53;5051525;28;20071;-72
2023/12/31 03:33:22;;;;;;;3.65;1.60;;;;;;;8.19;100.00;99958.09;5050320;28;20037;-72
2023/12/31 03:35:48;;;;;;;4.00;1.40;;;;;;;8.19;100.00;99954.63;5051442;28;20037;-72
2023/12/31 03:38:13;;;;;;;2.92;1.63;;;;;;;8.20;100.00;99949.13;5051424;28;20032;-72
2023/12/31 03:40:40;;;;;;;1.77;1.20;;;;;;;8.21;100.00;99937.47;5051173;28;20057;-72
2023/12/31 03:43:06;;;;;;;2.17;1.20;;;;;;;8.18;100.00;99931.75;5051305;28;20653;-72
2023/12/31 03:45:32;;;;;;;3.33;1.88;;;;;;;8.17;100.00;99914.97;5051166;28;20033;-72
2023/12/31 03:47:57;;;;;;;5.35;1.63;;;;;;;8.14;100.00;99912.75;5051136;28;20099;-71
2023/12/31 03:50:23;;;;;;;1.50;1.20;;;;;;;8.09;100.00;99910.69;5051204;28;20043;-72
2023/12/31 03:52:48;;;;;;;4.80;1.63;;;;;;;8.05;100.00;99900.69;5049751;28;20039;-72
2023/12/31 03:55:13;;;;;;;2.85;1.35;;;;;;;8.03;100.00;99884.16;5051024;28;20483;-72
2023/12/31 03:57:39;;;;;;;2.00;1.38;;;;;;;7.98;100.00;99875.97;5051101;28;20036;-72
2023/12/31 04:00:07;;;;;;;2.92;1.42;;;;;;;7.97;100.00;99882.31;5051063;28;20950;-72
2023/12/31 04:02:33;;;;;;;2.13;1.20;;;;;;;7.97;100.00;99875.16;5051073;28;20412;-72
2023/12/31 04:04:58;;;;;;;2.60;1.90;;;;;;;7.94;100.00;99866.75;5050831;28;20033;-72
2023/12/31 04:07:24;;;;;;;2.85;1.65;;;;;;;7.98;100.00;99875.97;5050958;28;20063;-72
2023/12/31 04:09:50;;;;;;;1.63;1.20;;;;;;;8.01;100.00;99867.59;5050816;28;20064;-72
2023/12/31 04:12:15;;;;;;;4.85;1.73;;;;;;;7.98;100.00;99847.56;5049612;28;21008;-72
2023/12/31 04:14:41;;;;;;;1.55;1.13;;;;;;;7.99;100.00;99845.72;5050727;28;20511;-72
2023/12/31 04:17:06;;;;;;;5.90;1.50;;;;;;;7.99;100.00;99841.25;5049542;28;20090;-72
2023/12/31 04:19:31;;;;;;;1.80;1.25;;;;;;;7.99;100.00;99838.59;5050762;28;20392;-71
2023/12/31 04:21:57;;;;;;;2.65;1.27;;;;;;;7.97;100.00;99839.84;5050618;28;20460;-72
2023/12/31 04:24:22;;;;;;;2.08;1.30;;;;;;;7.99;100.00;99837.75;5050540;28;20267;-71
2023/12/31 04:26:48;;;;;;;3.42;1.58;;;;;;;8.00;100.00;99828.81;5050636;28;20052;-72
2023/12/31 04:29:13;;;;;;;6.25;1.83;;;;;;;8.03;100.00;99823.06;5050491;28;20037;-71
2023/12/31 04:31:56;;;;;;;3.72;1.60;;;;;;;8.03;100.00;99813.25;5050447;28;20967;-71
2023/12/31 04:34:21;;;;;;;2.55;1.50;;;;;;;8.06;100.00;99806.72;5050415;28;20452;-71
2023/12/31 04:36:47;;;;;;;3.33;1.98;;;;;;;8.07;100.00;99798.56;5050452;28;20111;-71
2023/12/31 04:39:12;;;;;;;3.65;2.15;;;;;;;8.06;100.00;99799.56;5050095;28;20080;-71
2023/12/31 04:41:38;;;;;;;3.13;1.33;;;;;;;8.08;100.00;99794.06;5050347;28;20106;-71
2023/12/31 04:44:04;;;;;;;3.13;1.70;;;;;;;8.05;100.00;99791.81;5049726;28;20052;-71
2023/12/31 04:46:29;;;;;;;1.83;1.50;;;;;;;8.03;100.00;99784.06;5050142;28;20052;-71
2023/12/31 04:48:55;;;;;;;4.20;1.90;;;;;;;8.05;100.00;99782.00;5049970;28;20091;-71
2023/12/31 04:51:24;;;;;;;2.85;1.92;;;;;;;8.07;100.00;99774.66;5050101;28;20079;-71
2023/12/31 04:53:51;;;;;;;2.58;1.60;;;;;;;8.06;100.00;99761.59;5050042;28;20105;-71
2023/12/31 04:56:25;;;;;;;2.60;1.67;;;;;;;8.12;100.00;99768.72;5049760;28;20036;-71
2023/12/31 04:58:55;;;;;;;4.30;2.38;;;;;;;8.12;100.00;99768.72;5049952;28;20476;-71
2023/12/31 05:01:22;;;;;;;2.80;1.73;;;;;;;8.12;100.00;99758.09;5049527;28;20079;-71
2023/12/31 05:03:49;;;;;;;3.45;2.00;;;;;;;8.14;100.00;99756.03;5048562;28;20057;-71
2023/12/31 05:06:14;;;;;;;2.90;1.80;;;;;;;8.14;100.00;99740.13;5049894;28;20116;-71
2023/12/31 05:08:43;;;;;;;1.77;1.25;;;;;;;8.16;100.00;99742.56;5049322;28;20116;-71
2023/12/31 05:11:08;;;;;;;2.85;1.92;;;;;;;8.19;100.00;99737.66;5049639;28;20368;-71
2023/12/31 05:13:34;;;;;;;2.72;1.70;;;;;;;8.17;100.00;99729.06;5049566;28;20078;-71
2023/12/31 05:16:00;;;;;;;4.32;1.83;;;;;;;8.07;100.00;99724.22;5048290;28;20041;-71
2023/12/31 05:18:25;;;;;;;4.07;2.15;;;;;;;8.21;100.00;99717.00;5049535;28;20052;-71
2023/12/31 05:20:51;;;;;;;3.45;1.95;;;;;;;8.21;100.00;99722.31;5049570;28;20037;-71
2023/12/31 05:23:16;;;;;;;4.05;2.00;;;;;;;8.24;100.00;99718.44;5049602;28;20045;-71
2023/12/31 05:25:41;;;;;;;3.03;1.90;;;;;;;8.23;100.00;99719.47;5049444;28;20064;-71
2023/12/31 05:28:07;;;;;;;3.17;1.73;;;;;;;8.25;100.00;99707.63;5049282;28;20025;-71
2023/12/31 05:30:32;;;;;;;4.93;3.15;;;;;;;8.27;100.00;99699.41;5049321;28;20094;-71
2023/12/31 05:32:57;;;;;;;3.60;2.13;;;;;;;8.29;100.00;99686.75;5049235;28;20033;-71
2023/12/31 05:35:23;;;;;;;3.35;1.65;;;;;;;8.34;100.00;99687.75;5047936;28;20045;-71
2023/12/31 05:37:48;;;;;;;5.65;2.35;;;;;;;8.30;100.00;99667.13;5049165;28;20040;-71
2023/12/31 05:40:13;;;;;;;2.53;1.75;;;;;;;8.37;100.00;99683.84;5047840;28;20067;-71
2023/12/31 05:42:39;;;;;;;3.05;1.73;;;;;;;8.37;100.00;99683.84;5049236;28;20037;-71
2023/12/31 05:45:04;;;;;;;4.18;1.95;;;;;;;8.30;100.00;99651.19;5049006;28;20436;-71
2023/12/31 05:47:30;;;;;;;3.75;2.17;;;;;;;8.34;100.00;99655.06;5048997;28;20405;-71
2023/12/31 05:49:55;;;;;;;4.68;2.67;;;;;;;8.37;100.00;99657.28;5049148;28;20088;-71
2023/12/31 05:52:20;;;;;;;4.13;2.35;;;;;;;8.38;100.00;99661.56;5047559;28;20047;-71
2023/12/31 05:54:46;;;;;;;5.70;2.55;;;;;;;8.38;100.00;99650.13;5048252;28;20025;-71
2023/12/31 05:57:11;;;;;;;5.07;1.85;;;;;;;8.43;100.00;99653.00;5048963;28;20031;-71
2023/12/31 05:59:37;;;;;;;4.30;2.17;;;;;;;8.42;100.00;99640.75;5048986;28;20119;-71
2023/12/31 06:02:02;;;;;;;6.18;2.55;;;;;;;8.41;100.00;99647.91;5048930;28;20049;-71
2023/12/31 06:04:27;;;;;;;3.00;1.73;;;;;;;8.40;100.00;99634.81;5048920;28;20495;-71
2023/12/31 06:06:53;;;;;;;3.83;2.42;;;;;;;8.40;100.00;99634.81;5048779;28;20040;-71
2023/12/31 06:09:18;;;;;;;5.53;2.50;;;;;;;8.41;100.00;99644.41;5048668;28;20040;-71
2023/12/31 06:11:43;;;;;;;3.20;1.80;;;;;;;8.35;100.00;99632.78;5048604;28;20987;-71
2023/12/31 06:14:09;;;;;;;3.45;2.10;;;;;;;8.44;100.00;99649.34;5048661;28;20362;-71
2023/12/31 06:16:34;;;;;;;3.97;2.30;;;;;;;8.39;100.00;99625.22;5048621;28;20438;-71
2023/12/31 06:18:59;;;;;;;6.63;2.63;;;;;;;8.41;100.00;99631.13;5048770;28;20472;-71
2023/12/31 06:21:25;;;;;;;4.30;2.20;;;;;;;8.38;100.00;99618.25;5048518;28;20365;-71
2023/12/31 06:23:51;;;;;;;5.47;2.80;;;;;;;8.40;100.00;99611.72;5047532;28;20039;-72
2023/12/31 06:26:16;;;;;;;8.70;3.25;;;;;;;8.38;100.00;99607.63;5048574;28;20037;-71
2023/12/31 06:28:41;;;;;;;4.05;2.53;;;;;;;8.38;100.00;99607.63;5048602;28;20448;-71
2023/12/31 06:31:07;;;;;;;4.75;2.55;;;;;;;8.34;100.00;99608.06;5047198;28;20037;-71
2023/12/31 06:33:32;;;;;;;4.60;2.65;;;;;;;8.31;100.00;99615.66;5048674;28;20032;-71
2023/12/31 06:35:58;;;;;;;5.60;2.78;;;;;;;8.30;100.00;99614.81;5048312;28;20029;-71
2023/12/31 06:38:24;;;;;;;4.93;2.30;;;;;;;8.28;100.00;99603.59;5048523;28;20060;-71
2023/12/31 06:40:49;;;;;;;3.85;2.25;;;;;;;8.26;100.00;99596.88;5048379;28;20092;-71
2023/12/31 06:43:14;;;;;;;7.32;2.78;;;;;;;8.24;100.00;99596.25;5048656;28;20068;-71
2023/12/31 06:45:40;;;;;;;2.85;2.13;;;;;;;8.23;100.00;99591.97;5048547;28;20176;-71
2023/12/31 06:48:06;;;;;;;4.30;2.20;;;;;;;8.23;100.00;99582.16;5048032;28;20033;-71
2023/12/31 06:50:32;;;;;;;3.72;2.38;;;;;;;8.20;100.00;99579.94;5048019;28;20040;-71
2023/12/31 06:52:58;;;;;;;3.35;2.33;;;;;;;8.22;100.00;99569.91;5048408;28;20072;-71
2023/12/31 06:55:23;;;;;;;3.70;2.25;;;;;;;8.21;100.00;99570.13;5048270;28;20079;-71
2023/12/31 06:57:49;;;;;;;5.78;2.60;;;;;;;8.19;100.00;99557.03;5048470;28;20037;-71
2023/12/31 07:00:14;;;;;;;4.43;2.47;;;;;;;8.18;100.00;99554.63;5048284;28;20086;-71
2023/12/31 07:02:40;;;;;;;6.80;2.67;;;;;;;8.21;100.00;99549.69;5048318;28;20377;-71
2023/12/31 07:05:06;;;;;;;4.30;2.25;;;;;;;8.24;100.00;99548.44;5048298;28;20021;-71
2023/12/31 07:07:31;;;;;;;4.93;3.28;;;;;;;8.27;100.00;99545.34;5049358;28;20102;-71
2023/12/31 07:09:56;;;;;;;4.05;2.38;;;;;;;8.29;100.00;99538.81;5051979;28;20025;-71
2023/12/31 07:12:22;;;;;;;6.78;3.13;;;;;;;8.31;100.00;99533.28;5051917;28;20419;-71
2023/12/31 07:14:47;;;;;;;3.78;2.10;;;;;;;8.35;100.00;99532.63;5051665;28;20026;-71
2023/12/31 07:17:12;;;;;;;3.88;2.28;;;;;;;8.33;100.00;99532.06;5051761;28;20048;-71
2023/12/31 07:19:38;;;;;;;5.53;2.90;;;;;;;8.41;100.00;99522.19;5051883;28;20070;-71
2023/12/31 07:22:04;;;;;;;5.93;2.80;;;;;;;8.45;100.00;99526.88;5051490;28;20041;-71
2023/12/31 07:24:32;;;;;;;8.63;2.60;;;;;;;8.48;100.00;99525.63;5051796;28;20056;-71
2023/12/31 07:26:58;;;;;;;4.38;2.60;;;;;;;8.49;100.00;99509.50;5033634;28;20365;-71
2023/12/31 07:29:23;;;;;;;5.22;2.78;;;;;;;8.55;100.00;99513.94;5051644;28;20032;-71
2023/12/31 07:31:48;;;;;;;5.13;2.72;;;;;;;8.58;100.00;99507.38;5051601;28;20868;-71
2023/12/31 07:34:15;;;;;;;5.70;2.67;;;;;;;8.63;100.00;99502.22;5051402;28;20029;-71
2023/12/31 07:36:41;;;;;;;4.25;2.40;;;;;;;8.67;100.00;99502.59;5051322;28;20112;-71
2023/12/31 07:39:06;;;;;;;4.53;2.70;;;;;;;8.68;100.00;99502.38;5051142;28;20166;-71
2023/12/31 07:41:32;;;;;;;5.20;2.63;;;;;;;8.62;100.00;99487.31;5051177;28;20036;-71
2023/12/31 07:43:57;;;;;;;6.05;2.83;;;;;;;8.70;100.00;99487.03;5051282;28;20468;-71
2023/12/31 07:46:23;;;;;;;6.38;2.70;;;;;;;8.67;100.00;99495.44;5051125;28;20029;-72
2023/12/31 07:48:49;;;;;;;5.95;2.58;;;;;;;8.71;100.00;99496.63;5051275;28;20029;-71
2023/12/31 07:51:15;;;;;;;5.38;2.90;;;;;;;8.74;100.00;99490.88;5050968;28;20039;-71
2023/12/31 07:53:40;;;;;;;3.63;2.60;;;;;;;8.78;100.00;99488.59;5051161;28;20400;-71
2023/12/31 07:56:06;;;;;;;5.07;2.67;;;;;;;8.78;100.00;99478.78;5050708;28;20044;-71
2023/12/31 07:58:32;;;;;;;6.30;2.88;;;;;;;8.80;100.00;99465.25;5050367;28;20033;-71
2023/12/31 08:00:58;;;;;;;7.93;2.03;;;;;;;8.88;100.00;99466.81;5050101;28;20037;-71
2023/12/31 08:03:24;;;;;;;2.90;1.98;;;;;;;8.91;100.00;99464.56;5050291;28;20037;-72
2023/12/31 08:05:51;;;;;;;5.60;2.85;;;;;;;8.98;100.00;99469.78;5050593;28;20437;-71
2023/12/31 08:08:17;;;;;;;5.25;2.38;;;;;;;9.03;100.00;99461.16;5050799;28;20033;-71
2023/12/31 08:10:44;;;;;;;5.28;3.45;;;;;;;9.05;100.00;99469.72;5050567;28;20037;-71
2023/12/31 08:13:09;;;;;;;8.05;3.22;;;;;;;9.09;100.00;99458.44;5050831;28;20484;-71
2023/12/31 08:15:35;;;;;;;5.38;2.78;;;;;;;9.13;100.00;99461.47;5049960;28;20033;-71
2023/12/31 08:18:00;;;;;;;7.40;3.10;;;;;;;9.13;100.00;99448.97;5048783;28;20032;-71
2023/12/31 08:20:26;;;;;;;4.82;2.13;;;;;;;9.21;100.00;99453.19;5049720;28;20029;-72
2023/12/31 08:22:52;;;;;;;7.00;3.03;;;;;;;9.21;100.00;99456.66;5049450;28;20037;-72
2023/12/31 08:25:19;;;;;;;5.25;2.53;;;;;;;9.23;100.00;99445.78;5048898;28;20098;-71
2023/12/31 08:27:44;;;;;;;6.68;2.75;;;;;;;9.24;100.00;99451.94;5049802;28;20024;-71
2023/12/31 08:30:11;;;;;;;6.20;2.85;;;;;;;9.20;100.00;99444.41;5049946;28;20033;-71
2023/12/31 08:32:36;;;;;;;3.55;2.55;;;;;;;9.20;100.00;99444.41;5049899;28;20037;-71
2023/12/31 08:35:01;;;;;;;4.68;2.75;;;;;;;9.23;100.00;99455.63;5049038;28;20069;-71
2023/12/31 08:37:27;;;;;;;4.82;2.55;;;;;;;9.25;100.00;99453.53;5050275;28;20107;-71
2023/12/31 08:39:52;;;;;;;5.78;2.78;;;;;;;9.26;100.00;99453.31;5050099;28;20053;-72
2023/12/31 08:42:18;;;;;;;4.00;2.33;;;;;;;9.27;100.00;99452.28;5049850;28;20034;-72
2023/12/31 08:44:43;;;;;;;5.30;2.28;;;;;;;9.29;100.00;99447.56;5048025;28;20037;-72
2023/12/31 08:47:09;;;;;;;4.20;1.92;;;;;;;9.28;100.00;99451.25;5050124;28;20040;-72
2023/12/31 08:49:34;;;;;;;4.70;2.40;;;;;;;9.30;100.00;99457.19;5050206;28;20028;-72
2023/12/31 08:52:00;;;;;;;3.97;2.38;;;;;;;9.32;100.00;99441.78;5049868;28;20428;-72
2023/12/31 08:54:25;;;;;;;4.35;2.00;;;;;;;9.40;100.00;99441.47;5050146;28;20067;-72
2023/12/31 08:56:51;;;;;;;4.00;2.08;;;;;;;9.47;100.00;99445.94;5050232;28;20025;-71
2023/12/31 08:59:17;;;;;;;4.82;2.15;;;;;;;9.49;100.00;99447.31;5049878;28;20068;-71
2023/12/31 09:01:42;;;;;;;5.22;2.08;;;;;;;9.47;100.00;99441.41;5049787;28;20024;-71
2023/12/31 09:04:10;;;;;;;3.35;2.17;;;;;;;9.53;100.00;99445.03;5048392;28;20553;-71
2023/12/31 09:06:35;;;;;;;5.28;2.53;;;;;;;9.53;100.00;99455.66;5049672;28;20032;-71
2023/12/31 09:09:00;;;;;;;5.60;3.33;;;;;;;9.51;100.00;99447.09;5049715;28;20021;-71
2023/12/31 09:11:26;;;;;;;5.40;2.38;;;;;;;9.46;100.00;99444.28;5049349;28;20020;-71
2023/12/31 09:13:51;;;;;;;3.13;2.00;;;;;;;9.43;100.00;99442.88;5048626;28;20021;-71
2023/12/31 09:16:17;;;;;;;4.85;2.65;;;;;;;9.41;100.00;99451.09;5049621;28;20032;-71
2023/12/31 09:18:42;;;;;;;2.80;1.55;;;;;;;9.40;100.00;99459.28;5049310;28;20104;-71
2023/12/31 09:21:07;;;;;;;3.72;1.88;;;;;;;9.29;100.00;99462.72;5048936;28;20025;-71
2023/12/31 09:23:33;;;;;;;2.47;1.50;;;;;;;9.33;100.00;99474.56;5049494;28;20068;-71
2023/12/31 09:25:58;;;;;;;2.15;1.77;;;;;;;9.32;100.00;99472.91;5049201;28;20036;-71
2023/12/31 09:28:24;;;;;;;3.60;1.85;;;;;;;9.34;100.00;99479.63;5049390;28;20510;-71
2023/12/31 09:30:50;;;;;;;3.38;2.20;;;;;;;9.31;100.00;99476.63;5048895;28;20036;-71
2023/12/31 09:33:15;;;;;;;2.63;1.33;;;;;;;9.35;100.00;99478.63;5049300;28;20056;-71
2023/12/31 09:35:41;;;;;;;1.98;1.40;;;;;;;9.36;100.00;99482.09;5049075;28;20473;-71
2023/12/31 09:38:06;;;;;;;3.00;1.65;;;;;;;9.31;100.00;99490.72;5049288;28;20547;-71
2023/12/31 09:40:31;;;;;;;2.83;1.73;;;;;;;9.32;100.00;99481.69;5048972;28;20056;-70
2023/12/31 09:43:01;;;;;;;4.07;2.20;;;;;;;9.30;100.00;99491.78;5047239;28;20159;-73
2023/12/31 09:45:29;;;;;;;3.92;1.92;;;;;;;9.28;100.00;99490.38;5045970;28;20025;-73
2023/12/31 09:47:59;;;;;;;2.83;1.85;;;;;;;9.27;100.00;99494.03;5046512;28;20083;-72
2023/12/31 09:50:25;;;;;;;2.15;1.50;;;;;;;9.28;100.00;99503.66;5046549;28;20107;-71
2023/12/31 09:52:55;;;;;;;6.68;2.08;;;;;;;9.25;100.00;99485.47;5046816;28;20092;-71
2023/12/31 09:55:24;;;;;;;2.83;1.55;;;;;;;9.18;100.00;99493.53;5046815;28;20047;-71
2023/12/31 09:57:52;;;;;;;2.33;1.77;;;;;;;9.19;100.00;99492.47;5046801;28;20025;-72
2023/12/31 10:00:18;;;;;;;4.75;1.65;;;;;;;9.19;100.00;99503.13;5046861;28;20024;-71
2023/12/31 10:02:43;;;;;;;4.05;1.90;;;;;;;9.18;100.00;99510.28;5046432;28;20511;-72
2023/12/31 10:05:10;;;;;;;3.25;1.70;;;;;;;9.16;100.00;99503.56;5046712;28;20025;-70
2023/12/31 10:07:35;;;;;;;2.95;2.00;;;;;;;9.10;100.00;99507.13;5046188;28;20040;-72
2023/12/31 10:10:03;;;;;;;2.35;1.63;;;;;;;9.10;100.00;99499.94;5046274;28;20025;-72
2023/12/31 10:12:29;;;;;;;3.53;2.10;;;;;;;9.12;100.00;99505.06;5046610;28;20029;-71
2023/12/31 10:14:55;;;;;;;1.90;1.38;;;;;;;9.06;100.00;99492.63;5046736;28;20091;-72
2023/12/31 10:17:20;;;;;;;2.45;1.40;;;;;;;9.06;100.00;99481.97;5046910;28;20025;-72
2023/12/31 10:19:46;;;;;;;5.18;1.80;;;;;;;9.05;100.00;99486.50;5046640;28;20115;-72
2023/12/31 10:22:13;;;;;;;2.35;1.30;;;;;;;9.11;100.00;99495.44;5028202;28;20033;-71
2023/12/31 10:24:39;;;;;;;1.90;1.33;;;;;;;9.13;100.00;99488.88;5046613;28;20040;-72
2023/12/31 10:27:06;;;;;;;2.53;1.52;;;;;;;9.18;100.00;99496.19;5046506;28;20037;-72
2023/12/31 10:29:32;;;;;;;2.08;1.65;;;;;;;9.21;100.00;99499.22;5046461;28;20060;-72
2023/12/31 10:31:58;;;;;;;3.53;2.03;;;;;;;9.23;100.00;99498.19;5046521;28;20056;-72
2023/12/31 10:34:23;;;;;;;1.83;0.95;;;;;;;9.14;100.00;99485.19;5046183;28;21163;-72
2023/12/31 10:36:49;;;;;;;2.58;1.63;;;;;;;9.02;100.00;99496.78;5046512;28;20036;-75
2023/12/31 10:39:28;;;;;;;1.63;1.42;;;;;;;8.99;100.00;99484.72;5045270;28;20135;-71
2023/12/31 10:41:59;;;;;;;4.07;2.13;;;;;;;8.86;100.00;99503.47;5047907;28;20599;-71
2023/12/31 10:44:28;;;;;;;4.50;1.35;;;;;;;8.73;100.00;99499.88;5049891;28;20086;-71
2023/12/31 10:46:57;;;;;;;4.82;1.33;;;;;;;8.63;100.00;99496.09;5050062;28;20021;-71
2023/12/31 10:49:26;;;;;;;1.92;1.38;;;;;;;8.50;100.00;99489.84;5050058;28;20043;-71
2023/12/31 10:51:53;;;;;;;2.40;1.65;;;;;;;8.45;100.00;99495.00;5049616;28;20032;-71
2023/12/31 10:54:29;;;;;;;1.67;1.27;;;;;;;8.34;100.00;99493.81;5032514;28;20490;-72
2023/12/31 10:56:55;;;;;;;2.03;1.73;;;;;;;8.26;100.00;99496.75;5050247;28;20044;-71
2023/12/31 10:59:21;;;;;;;4.05;1.60;;;;;;;8.22;100.00;99490.22;5049733;28;20029;-72
2023/12/31 11:01:47;;;;;;;4.30;1.63;;;;;;;8.14;100.00;99493.13;5050166;28;20037;-71
2023/12/31 11:04:14;;;;;;;2.92;1.40;;;;;;;8.09;100.00;99498.28;5049727;28;20035;-71
2023/12/31 11:06:42;;;;;;;2.42;1.30;;;;;;;8.17;100.00;99497.22;5050133;28;20025;-71
2023/12/31 11:09:08;;;;;;;6.03;1.67;;;;;;;8.21;100.00;99501.88;5049906;28;20430;-72
2023/12/31 11:11:35;;;;;;;4.70;1.50;;;;;;;8.25;100.00;99502.25;5049625;28;20033;-72
2023/12/31 11:14:04;;;;;;;4.63;1.80;;;;;;;8.31;100.00;99496.91;5049843;28;20468;-71
2023/12/31 11:16:47;;;;;;;6.78;2.83;;;;;;;8.40;100.00;99499.34;5049530;28;20029;-71
2023/12/31 11:19:34;;;;;;;1.42;1.17;;;;;;;8.51;100.00;99496.81;5049759;28;20029;-71
2023/12/31 11:22:27;;;;;;;2.67;1.38;;;;;;;8.61;100.00;99495.50;5049454;28;20078;-72
2023/12/31 11:24:55;;;;;;;5.93;1.60;;;;;;;8.61;100.00;99491.00;5049004;28;20433;-71
2023/12/31 11:27:21;;;;;;;2.72;1.20;;;;;;;8.63;100.00;99494.25;5049660;28;20039;-71